Time;durP1;ratioP1;P1;durP2;ratioP2;P2;SDS_P1;SDS_P2;PMS_P1;PMS_P2;Temp;Humidity;BMP_temperature;BMP_pressure;BME280_temperature;BME280_humidity;BME280_pressure;Samples;Min_cycle;Max_cycle;Signal;HPM_P1;HPM_P2
2021/05/19 00:02:12;;;;;;;46.05;29.27;;;7.70;99.90;;;9.11;97.49;100554.34;4932103;29;20054;-87
2021/05/19 00:04:37;;;;;;;44.70;27.50;;;7.70;99.90;;;9.07;97.82;100548.66;4950681;29;20590;-86
2021/05/19 00:07:04;;;;;;;44.78;29.13;;;7.70;99.90;;;9.06;97.42;100555.38;4942743;28;20038;-86
2021/05/19 00:09:30;;;;;;;43.42;27.95;;;7.70;99.90;;;9.00;97.67;100554.00;4945547;29;20397;-85
2021/05/19 00:11:56;;;;;;;42.35;27.35;;;7.70;99.90;;;8.93;97.43;100546.22;4956887;28;20098;-88
2021/05/19 00:14:26;;;;;;;40.08;26.88;;;7.60;99.90;;;8.86;97.34;100550.78;4956142;28;20027;-88
2021/05/19 00:16:52;;;;;;;51.78;31.98;;;7.50;99.90;;;8.80;97.96;100552.97;4956876;29;20508;-84
2021/05/19 00:19:19;;;;;;;46.85;28.35;;;7.50;99.90;;;8.79;97.62;100547.75;4956851;29;20086;-87
2021/05/19 00:21:45;;;;;;;49.33;30.10;;;7.40;99.90;;;8.78;97.69;100546.94;4956874;28;20055;-86
2021/05/19 00:24:12;;;;;;;42.70;27.50;;;7.40;99.90;;;8.75;97.85;100550.44;4954284;29;20035;-87
2021/05/19 00:26:38;;;;;;;43.95;27.10;;;7.40;99.90;;;8.70;97.62;100547.84;4943564;29;20038;-85
2021/05/19 00:29:16;;;;;;;40.83;26.48;;;7.40;99.90;;;8.69;97.61;100551.81;4944106;29;20038;-83
2021/05/19 00:31:43;;;;;;;39.22;25.98;;;7.40;99.90;;;8.62;97.31;100551.59;4949051;28;20119;-83
2021/05/19 00:34:12;;;;;;;44.17;26.08;;;7.20;99.90;;;8.59;97.43;100557.03;4958376;28;20110;-87
2021/05/19 00:36:39;;;;;;;48.60;30.20;;;7.20;99.90;;;8.58;97.67;100558.19;4957274;29;20566;-87
2021/05/19 00:39:10;;;;;;;47.58;27.25;;;7.20;99.90;;;8.54;97.35;100548.91;4958355;28;20408;-85
2021/05/19 00:41:41;;;;;;;45.58;27.63;;;7.20;99.90;;;8.46;97.43;100551.47;4956683;28;20110;-86
2021/05/19 00:44:17;;;;;;;42.55;26.85;;;7.10;99.90;;;8.44;97.57;100550.97;4957425;29;20038;-85
2021/05/19 00:46:46;;;;;;;55.50;31.83;;;7.10;99.90;;;8.38;97.71;100541.22;4957130;29;20038;-86
2021/05/19 00:49:13;;;;;;;56.55;31.15;;;7.00;99.90;;;8.39;98.03;100536.47;4956806;28;20144;-87
2021/05/19 00:51:41;;;;;;;55.63;30.88;;;7.00;99.90;;;8.41;97.93;100548.88;4956371;28;20392;-86
2021/05/19 00:54:07;;;;;;;59.25;34.85;;;7.00;99.90;;;8.39;97.91;100536.47;4956963;28;20038;-87
2021/05/19 00:56:34;;;;;;;57.20;32.17;;;7.00;99.90;;;8.42;98.37;100546.91;4957910;29;20117;-85
2021/05/19 00:59:03;;;;;;;55.63;32.20;;;7.10;99.90;;;8.43;98.08;100538.25;4957731;29;20031;-86
2021/05/19 01:01:37;;;;;;;48.33;29.30;;;7.10;99.90;;;8.41;97.88;100542.53;4957556;28;20348;-85
2021/05/19 01:04:04;;;;;;;47.47;29.70;;;7.00;99.90;;;8.35;97.83;100535.53;4958169;29;20066;-86
2021/05/19 01:06:43;;;;;;;44.58;26.50;;;7.00;99.90;;;8.30;97.61;100544.13;4951257;28;20051;-86
2021/05/19 01:11:56;;;;;;;54.30;30.13;;;6.80;99.90;;;8.19;97.99;100540.94;4972037;28;20069;-86
2021/05/19 01:14:22;;;;;;;51.33;29.00;;;6.80;99.90;;;8.18;97.73;100541.31;4961824;29;20103;-87
2021/05/19 01:16:49;;;;;;;54.50;31.70;;;6.80;99.90;;;8.20;97.99;100538.97;4948999;29;20027;-86
2021/05/19 01:19:21;;;;;;;52.08;30.15;;;6.80;99.90;;;8.21;97.93;100535.03;4939287;29;20063;-87
2021/05/19 01:21:54;;;;;;;54.97;31.35;;;6.80;99.90;;;8.21;97.96;100537.81;4939753;29;20059;-86
2021/05/19 01:24:21;;;;;;;55.95;30.15;;;6.80;99.90;;;8.22;97.81;100531.13;4938090;29;20027;-86
2021/05/19 01:26:47;;;;;;;50.38;30.38;;;6.90;99.90;;;8.20;97.48;100531.44;4940009;29;20114;-88
2021/05/19 01:29:15;;;;;;;50.53;30.60;;;6.80;99.90;;;8.17;97.94;100539.66;4938650;29;20063;-86
2021/05/19 01:31:46;;;;;;;61.03;33.47;;;6.80;99.90;;;8.17;97.90;100540.47;4938310;29;20023;-87
2021/05/19 01:34:12;;;;;;;58.70;31.63;;;6.80;99.90;;;8.15;97.94;100547.56;4938798;29;20027;-86
2021/05/19 01:36:38;;;;;;;60.33;31.92;;;6.80;99.90;;;8.15;98.30;100537.25;4939284;29;20050;-87
2021/05/19 01:39:07;;;;;;;57.72;32.22;;;6.80;99.90;;;8.17;97.94;100540.47;4938438;29;20036;-87
2021/05/19 01:41:35;;;;;;;59.15;33.25;;;6.80;99.90;;;8.16;97.67;100536.06;4938276;29;20056;-86
2021/05/19 01:44:15;;;;;;;62.30;34.85;;;6.80;99.90;;;8.15;98.14;100531.69;4939275;29;20403;-89
2021/05/19 01:46:42;;;;;;;60.95;34.92;;;6.80;99.90;;;8.16;98.16;100530.50;4951875;29;20028;-85
2021/05/19 01:49:11;;;;;;;55.67;32.38;;;6.80;99.90;;;8.12;98.14;100537.94;4953969;29;20103;-85
2021/05/19 01:51:39;;;;;;;58.63;33.90;;;6.80;99.90;;;7.92;98.63;100541.56;4954602;29;20031;-84
2021/05/19 01:54:09;;;;;;;60.58;34.67;;;6.70;99.90;;;7.93;99.24;100537.63;4955328;29;20095;-83
2021/05/19 01:56:38;;;;;;;65.22;35.53;;;6.70;99.90;;;7.98;99.51;100542.97;4956311;29;20068;-85
2021/05/19 01:59:07;;;;;;;68.72;36.80;;;6.80;99.90;;;8.07;99.40;100534.53;4942968;29;20183;-86
2021/05/19 02:01:34;;;;;;;70.72;38.45;;;6.80;99.90;;;8.14;99.12;100540.34;4939346;29;20038;-86
2021/05/19 02:04:11;;;;;;;70.47;38.60;;;6.90;99.90;;;8.21;98.66;100541.44;4939354;29;20035;-87
2021/05/19 02:06:54;;;;;;;71.78;37.50;;;6.90;99.90;;;8.19;98.25;100545.69;4938785;29;20031;-86
2021/05/19 02:09:23;;;;;;;73.93;37.05;;;6.90;99.90;;;8.13;98.76;100539.53;4946016;29;20019;-87
2021/05/19 02:11:50;;;;;;;72.93;39.20;;;6.90;99.90;;;8.08;98.74;100537.00;4958982;28;20031;-88
2021/05/19 02:14:19;;;;;;;73.60;39.17;;;6.80;99.90;;;8.12;98.75;100542.69;4949616;29;20091;-87
2021/05/19 02:16:46;;;;;;;73.00;40.03;;;6.80;99.90;;;8.09;99.01;100538.59;4938385;29;20082;-86
2021/05/19 02:19:14;;;;;;;73.55;37.80;;;6.80;99.90;;;8.16;98.88;100546.38;4939972;29;20511;-86
2021/05/19 02:21:50;;;;;;;74.32;37.83;;;6.90;99.90;;;8.15;98.51;100542.00;4941612;29;20024;-89
2021/05/19 02:24:18;;;;;;;73.13;40.17;;;6.90;99.90;;;8.15;98.55;100544.78;4942953;29;20103;-89
2021/05/19 02:26:47;;;;;;;73.95;36.63;;;6.90;99.90;;;8.12;98.58;100543.50;4952677;29;20047;-86
2021/05/19 02:29:15;;;;;;;71.95;38.28;;;6.80;99.90;;;8.13;98.52;100542.31;4949810;29;20027;-86
2021/05/19 02:31:43;;;;;;;66.47;35.70;;;6.80;99.90;;;8.19;98.30;100540.94;4942073;28;20374;-86
2021/05/19 02:34:10;;;;;;;75.97;38.88;;;6.80;99.90;;;8.18;98.46;100544.09;4942288;29;20487;-90
2021/05/19 02:36:38;;;;;;;70.93;37.22;;;6.80;99.90;;;8.16;98.98;100551.94;4943358;29;20039;-86
2021/05/19 02:39:10;;;;;;;72.03;38.47;;;6.90;99.90;;;8.23;98.95;100539.09;4944348;29;20115;-87
2021/05/19 02:41:40;;;;;;;71.80;37.88;;;6.90;99.90;;;8.22;98.74;100536.69;4942459;29;20035;-86
2021/05/19 02:44:08;;;;;;;84.45;42.65;;;6.90;99.90;;;8.24;98.68;100535.16;4942362;29;20078;-87
2021/05/19 02:46:36;;;;;;;76.88;40.13;;;6.90;99.90;;;8.28;98.44;100533.31;4942321;29;20058;-89
2021/05/19 02:49:04;;;;;;;73.97;39.80;;;7.00;99.90;;;8.31;98.11;100537.41;4943939;29;20078;-87
2021/05/19 02:51:34;;;;;;;82.10;42.22;;;6.90;99.90;;;8.28;98.24;100527.75;4943456;29;20046;-85
2021/05/19 02:54:02;;;;;;;83.80;41.78;;;6.90;99.90;;;8.25;98.87;100536.78;4957371;29;20032;-85
2021/05/19 02:56:30;;;;;;;78.22;41.78;;;6.90;99.90;;;8.24;98.76;100534.34;4952110;29;20456;-82
2021/05/19 02:58:58;;;;;;;78.72;40.35;;;7.00;99.90;;;8.14;99.08;100532.81;4960693;28;20023;-84
2021/05/19 03:01:24;;;;;;;70.05;36.75;;;6.90;99.90;;;8.05;99.05;100531.28;4962500;28;20035;-85
2021/05/19 03:03:51;;;;;;;74.95;40.33;;;6.90;99.90;;;8.10;99.25;100540.22;4961178;28;20055;-86
2021/05/19 03:06:24;;;;;;;75.40;40.70;;;6.90;99.90;;;8.02;99.92;100532.81;4961702;28;20055;-85
2021/05/19 03:08:52;;;;;;;80.70;41.45;;;7.00;99.90;;;8.09;99.31;100537.81;4960228;29;20043;-85
2021/05/19 03:11:19;;;;;;;72.40;38.13;;;6.90;99.90;;;8.20;98.82;100541.75;4961298;28;20077;-85
2021/05/19 03:13:49;;;;;;;77.50;41.05;;;6.90;99.90;;;8.21;98.44;100537.81;4964275;28;20034;-85
2021/05/19 03:16:16;;;;;;;68.97;38.35;;;6.90;99.90;;;8.14;98.57;100549.50;4963796;29;20031;-84
2021/05/19 03:18:42;;;;;;;72.78;37.75;;;6.90;99.90;;;8.01;98.79;100549.81;4961671;28;20135;-86
2021/05/19 03:21:08;;;;;;;66.90;37.55;;;6.90;99.90;;;8.00;98.75;100546.22;4962165;28;20038;-85
2021/05/19 03:23:34;;;;;;;78.38;39.97;;;6.80;99.90;;;8.14;98.46;100549.50;4963269;28;20023;-86
2021/05/19 03:26:00;;;;;;;80.15;41.10;;;6.80;99.90;;;8.15;98.66;100542.81;4963553;28;20051;-84
2021/05/19 03:28:26;;;;;;;87.63;41.92;;;6.80;99.90;;;8.29;98.51;100551.66;4964709;29;20082;-87
2021/05/19 03:30:53;;;;;;;91.57;43.20;;;7.00;99.90;;;8.40;98.30;100546.47;4968953;28;20054;-84
2021/05/19 03:33:20;;;;;;;97.00;46.30;;;7.00;99.90;;;8.48;98.49;100555.88;4974344;28;20055;-84
2021/05/19 03:35:47;;;;;;;96.20;46.42;;;7.10;99.90;;;8.55;98.34;100551.34;4949171;29;20423;-87
2021/05/19 03:38:14;;;;;;;94.85;47.40;;;7.10;99.90;;;8.58;98.50;100553.44;4940131;29;20047;-85
2021/05/19 03:40:40;;;;;;;88.28;45.15;;;7.20;99.90;;;8.66;98.08;100552.53;4941011;29;20440;-86
2021/05/19 03:43:06;;;;;;;67.40;37.80;;;7.20;99.90;;;8.66;97.92;100557.28;4940627;29;20032;-84
2021/05/19 03:45:33;;;;;;;82.03;40.42;;;7.20;99.90;;;8.56;97.46;100557.72;4940638;29;20466;-86
2021/05/19 03:48:00;;;;;;;84.72;43.20;;;7.10;99.90;;;8.46;98.10;100556.22;4940208;29;20058;-88
2021/05/19 03:50:29;;;;;;;81.85;41.63;;;7.10;99.90;;;8.47;98.51;100563.41;4940668;29;20456;-85
2021/05/19 03:52:59;;;;;;;85.10;43.55;;;7.10;99.90;;;8.56;98.09;100560.50;4941566;29;20036;-83
2021/05/19 03:55:26;;;;;;;86.70;43.47;;;7.20;99.90;;;8.60;98.27;100564.22;4942761;29;20552;-87
2021/05/19 03:57:54;;;;;;;81.53;43.08;;;7.20;99.90;;;8.66;98.12;100571.19;4946191;29;20122;-85
2021/05/19 04:00:30;;;;;;;95.38;48.33;;;7.30;99.90;;;8.57;99.41;100562.97;4945193;29;20146;-85
2021/05/19 04:02:57;;;;;;;93.40;46.70;;;7.30;99.90;;;8.76;99.00;100568.78;4942720;29;20035;-84
2021/05/19 04:05:31;;;;;;;92.97;46.67;;;7.50;99.90;;;8.90;98.58;100568.41;4944322;29;20122;-84
2021/05/19 04:07:58;;;;;;;89.03;45.13;;;7.50;99.90;;;9.02;98.04;100564.81;4948220;29;20027;-86
2021/05/19 04:10:26;;;;;;;92.45;46.67;;;7.60;99.90;;;9.01;97.76;100566.78;4962508;29;20023;-85
2021/05/19 04:12:53;;;;;;;86.85;45.75;;;7.60;99.90;;;8.98;97.70;100561.91;4960051;28;20082;-86
2021/05/19 04:15:24;;;;;;;75.97;42.97;;;7.60;99.90;;;8.97;97.51;100577.81;4957180;28;20059;-87
2021/05/19 04:17:51;;;;;;;69.82;38.85;;;7.60;99.90;;;9.06;97.03;100579.63;4957799;28;20031;-88
2021/05/19 04:20:21;;;;;;;69.90;38.88;;;7.60;99.90;;;8.87;96.55;100571.88;4959505;29;20103;-87
2021/05/19 04:22:47;;;;;;;71.65;41.25;;;7.50;99.90;;;8.70;97.48;100581.28;4961733;28;20028;-85
2021/05/19 04:25:16;;;;;;;77.20;41.40;;;7.50;99.90;;;8.78;97.06;100582.34;4956924;28;20159;-85
2021/05/19 04:27:43;;;;;;;73.65;40.90;;;7.40;99.90;;;8.89;97.13;100583.50;4920792;29;20032;-86
2021/05/19 04:30:11;;;;;;;77.72;41.85;;;7.50;99.90;;;8.87;96.89;100588.59;4947720;29;20031;-85
2021/05/19 04:32:38;;;;;;;76.70;42.53;;;7.50;99.90;;;8.97;97.03;100588.94;4957220;28;20517;-84
2021/05/19 04:35:08;;;;;;;73.35;40.28;;;7.60;99.90;;;9.12;97.27;100589.41;4957460;28;20483;-86
2021/05/19 04:37:35;;;;;;;74.32;41.05;;;7.70;99.90;;;9.29;96.50;100587.16;4959733;28;20031;-89
2021/05/19 04:40:06;;;;;;;73.22;42.83;;;7.80;99.90;;;9.26;96.90;100587.06;4960556;28;20067;-84
2021/05/19 04:42:34;;;;;;;76.13;41.50;;;7.90;99.90;;;9.38;96.20;100584.25;4958761;28;20408;-86
2021/05/19 04:45:00;;;;;;;73.93;40.78;;;8.00;99.90;;;9.39;95.90;100585.88;4959143;29;20049;-85
2021/05/19 04:47:26;;;;;;;69.43;39.85;;;8.00;99.90;;;9.38;95.52;100589.81;4960356;28;20439;-88
2021/05/19 04:49:53;;;;;;;63.00;37.35;;;8.00;99.90;;;9.32;95.10;100603.19;4958949;29;20101;-86
2021/05/19 04:52:20;;;;;;;62.25;37.83;;;7.90;99.90;;;9.28;95.69;100593.13;4960651;28;20034;-86
2021/05/19 04:54:45;;;;;;;59.80;36.97;;;7.90;99.90;;;9.32;95.93;100596.81;4959442;29;20140;-83
2021/05/19 04:57:13;;;;;;;59.08;36.53;;;8.00;99.90;;;9.48;95.55;100600.47;4959276;29;20035;-84
2021/05/19 04:59:39;;;;;;;65.90;39.53;;;8.10;99.90;;;9.56;95.65;100607.09;4959295;29;20098;-84
2021/05/19 05:02:05;;;;;;;62.83;38.83;;;8.10;99.90;;;9.56;95.19;100604.31;4961224;28;20651;-85
2021/05/19 05:04:31;;;;;;;64.03;37.67;;;8.20;99.90;;;9.61;95.26;100613.22;4960442;28;20054;-86
2021/05/19 05:06:57;;;;;;;55.97;34.78;;;8.20;99.90;;;9.67;94.63;100611.81;4962674;29;20027;-86
2021/05/19 05:09:25;;;;;;;63.03;36.53;;;8.30;99.90;;;9.84;94.58;100613.53;4959471;29;20031;-86
2021/05/19 05:11:51;;;;;;;57.67;37.00;;;8.40;99.90;;;9.70;94.83;100615.88;4957395;28;20531;-89
2021/05/19 05:14:17;;;;;;;61.55;36.70;;;8.40;99.90;;;9.79;94.89;100616.56;4963293;28;20023;-86
2021/05/19 05:16:43;;;;;;;53.00;33.35;;;8.50;99.90;;;9.91;94.64;100617.34;4964814;28;20038;-86
2021/05/19 05:19:11;;;;;;;52.85;32.97;;;8.60;99.90;;;9.99;93.87;100626.72;4967043;29;20032;-86
2021/05/19 05:21:37;;;;;;;55.55;34.42;;;8.60;99.90;;;10.03;93.65;100624.84;4960022;28;20031;-86
2021/05/19 05:24:04;;;;;;;55.17;35.42;;;8.70;99.90;;;10.19;93.27;100625.72;4960686;28;20042;-86
2021/05/19 05:26:30;;;;;;;50.03;31.80;;;8.80;99.90;;;10.37;92.84;100623.44;4960397;28;20078;-85
2021/05/19 05:28:58;;;;;;;52.15;32.60;;;8.90;99.90;;;10.58;92.46;100627.63;4961468;28;20077;-87
2021/05/19 05:31:26;;;;;;;45.53;30.50;;;9.10;99.90;;;10.56;91.32;100626.34;4965825;28;20044;-87
2021/05/19 05:33:56;;;;;;;44.45;30.33;;;9.20;99.90;;;10.67;91.03;100630.22;4965296;28;20063;-85
2021/05/19 05:36:23;;;;;;;41.42;29.00;;;9.30;99.90;;;10.69;91.51;100627.88;4962519;28;20130;-84
2021/05/19 05:38:57;;;;;;;43.47;29.85;;;9.40;99.90;;;11.24;90.70;100626.06;4962427;29;20399;-84
2021/05/19 05:41:24;;;;;;;43.88;29.00;;;9.70;99.90;;;11.76;88.02;100631.28;4961876;28;20391;-85
2021/05/19 05:43:50;;;;;;;36.20;25.90;;;10.10;99.90;;;12.01;86.40;100632.59;4959106;28;20491;-88
2021/05/19 05:46:16;;;;;;;32.28;23.42;;;10.40;99.90;;;12.62;83.94;100629.81;4941925;29;20032;-87
2021/05/19 05:48:42;;;;;;;34.22;22.48;;;10.80;99.90;;;13.04;83.42;100633.38;4941233;29;20060;-88
2021/05/19 05:51:08;;;;;;;30.92;22.45;;;11.10;99.90;;;13.35;81.69;100623.91;4940931;29;20062;-85
2021/05/19 05:53:34;;;;;;;33.80;20.33;;;11.50;99.90;;;13.51;80.90;100632.16;4997948;23;20044;-84
2021/05/19 05:56:00;;;;;;;24.30;19.45;;;11.70;99.90;;;13.72;79.03;100629.63;4941551;29;20058;-84
2021/05/19 05:58:26;;;;;;;22.15;15.82;;;11.90;99.90;;;13.44;77.85;100634.84;4933079;28;20476;-81
2021/05/19 06:00:52;;;;;;;19.50;15.05;;;11.80;99.90;;;13.27;78.45;100638.16;4942594;28;20084;-81
2021/05/19 06:03:18;;;;;;;20.90;14.10;;;11.70;99.90;;;13.09;79.52;100638.72;4946119;28;20051;-84
2021/05/19 06:05:44;;;;;;;17.02;13.35;;;11.50;99.90;;;12.65;79.66;100626.25;4947721;29;20020;-82
2021/05/19 06:08:10;;;;;;;21.00;14.40;;;11.20;99.90;;;12.64;80.18;100639.50;4958069;29;20038;-84
2021/05/19 06:10:36;;;;;;;21.63;14.55;;;11.10;99.90;;;12.47;81.24;100634.34;4951438;29;20049;-82
2021/05/19 06:13:02;;;;;;;22.17;13.73;;;11.00;99.90;;;12.47;80.93;100630.75;4954462;29;20032;-82
2021/05/19 06:15:28;;;;;;;18.90;13.77;;;11.00;99.90;;;12.42;80.78;100629.06;4945519;29;20372;-83
2021/05/19 06:17:54;;;;;;;23.98;15.02;;;10.80;99.90;;;12.53;81.43;100630.06;4943548;29;20086;-83
2021/05/19 06:20:20;;;;;;;19.65;13.82;;;10.80;99.90;;;12.46;81.91;100634.72;4941296;29;20032;-83
2021/05/19 06:22:47;;;;;;;16.63;13.32;;;10.90;99.90;;;12.91;82.00;100637.56;4951786;28;20118;-83
2021/05/19 06:25:15;;;;;;;16.05;12.43;;;11.20;99.90;;;13.29;80.37;100645.03;4943053;29;20095;-84
2021/05/19 06:27:43;;;;;;;18.85;13.93;;;11.50;99.90;;;13.71;79.41;100639.22;4944287;29;20034;-83
2021/05/19 06:30:11;;;;;;;21.38;12.98;;;11.80;99.90;;;14.01;77.17;100644.88;4958147;29;20086;-82
2021/05/19 06:32:38;;;;;;;19.02;11.40;;;12.20;99.90;;;14.16;76.02;100644.66;4939747;29;20028;-83
2021/05/19 06:35:05;;;;;;;13.65;10.32;;;12.40;99.90;;;14.38;75.52;100647.78;4945106;29;20153;-82
2021/05/19 06:37:31;;;;;;;15.73;9.40;;;12.50;99.90;;;14.07;74.43;100643.34;4942490;29;20027;-82
2021/05/19 06:39:57;;;;;;;18.60;10.35;;;12.40;99.90;;;13.97;74.18;100638.38;4944492;29;20175;-80
2021/05/19 06:42:23;;;;;;;12.38;8.73;;;12.30;99.90;;;14.15;75.05;100645.06;4959055;29;20040;-81
2021/05/19 06:44:48;;;;;;;14.15;10.13;;;12.30;99.90;;;14.46;75.44;100649.47;4943377;29;20039;-82
2021/05/19 06:47:16;;;;;;;13.10;9.80;;;12.60;99.90;;;14.88;73.92;100649.91;4943327;29;20032;-84
2021/05/19 06:49:42;;;;;;;13.30;9.05;;;12.90;99.90;;;15.49;73.72;100649.25;4941513;29;20087;-82
2021/05/19 06:52:08;;;;;;;16.15;10.75;;;13.30;99.90;;;16.01;70.35;100642.31;4945096;29;20020;-81
2021/05/19 06:54:34;;;;;;;13.77;9.40;;;13.80;99.90;;;15.79;69.40;100649.84;4943336;29;20123;-81
2021/05/19 06:57:00;;;;;;;13.85;10.00;;;13.90;99.90;;;15.41;70.76;100643.94;4942012;29;20028;-84
2021/05/19 06:59:26;;;;;;;11.45;8.98;;;13.80;99.90;;;15.78;70.49;100648.22;4954686;29;20094;-82
2021/05/19 07:01:52;;;;;;;11.85;9.95;;;14.00;99.90;;;15.60;71.24;100647.31;4940231;29;20031;-82
2021/05/19 07:04:19;;;;;;;15.27;9.57;;;14.00;99.90;;;16.19;69.71;100657.28;4942561;28;20031;-83
2021/05/19 07:06:45;;;;;;;16.48;9.32;;;14.40;99.90;;;16.52;67.77;100655.41;4941032;29;20054;-82
2021/05/19 07:09:12;;;;;;;14.48;9.32;;;14.60;99.90;;;16.25;67.31;100647.25;4941328;29;20028;-83
2021/05/19 07:11:38;;;;;;;11.98;8.82;;;14.60;99.90;;;15.77;67.37;100652.25;4941172;29;20031;-81
2021/05/19 07:14:06;;;;;;;15.23;8.68;;;14.30;99.90;;;15.50;68.51;100659.31;4939921;29;20068;-82
2021/05/19 07:16:35;;;;;;;16.00;8.50;;;14.00;99.90;;;15.05;68.47;100654.09;4940049;29;20062;-81
2021/05/19 07:19:00;;;;;;;12.80;8.50;;;13.70;99.90;;;14.78;69.53;100656.22;4939723;28;20040;-83
2021/05/19 07:21:27;;;;;;;13.88;7.90;;;13.50;99.90;;;15.06;68.88;100655.69;4938154;29;20118;-82
2021/05/19 07:23:53;;;;;;;12.73;7.72;;;13.50;99.90;;;15.42;67.85;100653.97;4942605;29;20024;-81
2021/05/19 07:26:24;;;;;;;14.13;7.32;;;13.60;99.90;;;15.44;69.24;100651.59;4942148;29;20170;-83
2021/05/19 07:28:52;;;;;;;11.93;8.27;;;13.70;99.90;;;15.60;67.01;100652.13;4944242;29;20066;-81
2021/05/19 07:31:18;;;;;;;17.63;7.95;;;13.90;99.90;;;15.76;67.05;100649.81;4945284;28;20027;-79
2021/05/19 07:33:44;;;;;;;10.88;7.55;;;13.90;99.90;;;15.97;66.68;100649.94;4944027;29;20036;-79
2021/05/19 07:36:10;;;;;;;10.05;6.93;;;14.10;99.90;;;15.16;67.60;100663.41;4950024;29;20032;-81
2021/05/19 07:38:37;;;;;;;12.13;6.32;;;13.90;99.90;;;15.31;67.96;100656.72;4950883;29;20028;-81
2021/05/19 07:41:03;;;;;;;15.23;6.30;;;13.80;99.90;;;15.13;66.52;100665.00;4948873;29;20047;-82
2021/05/19 07:43:28;;;;;;;10.55;6.35;;;13.80;99.90;;;15.49;66.20;100657.69;4948012;28;20031;-81
2021/05/19 07:45:54;;;;;;;10.63;5.43;;;13.80;99.90;;;15.74;64.51;100663.47;4951177;29;20039;-79
2021/05/19 07:48:20;;;;;;;12.27;5.70;;;13.90;99.90;;;15.56;64.40;100657.75;4953820;29;20039;-82
2021/05/19 07:50:46;;;;;;;12.13;6.85;;;13.90;99.90;;;15.55;66.23;100653.31;4952864;29;20039;-81
2021/05/19 07:53:12;;;;;;;9.90;4.95;;;14.00;99.90;;;16.12;62.41;100657.25;4950671;29;20043;-80
2021/05/19 07:55:57;;;;;;;8.07;3.55;;;14.30;99.90;;;16.96;60.69;100660.75;4947986;29;20054;-80
2021/05/19 08:04:02;;;;;;;11.00;3.75;;;15.90;99.90;;;18.37;55.79;100655.69;4945889;29;20114;-81
2021/05/19 08:06:29;;;;;;;13.40;3.85;;;16.20;99.90;;;18.38;53.75;100659.34;4944890;29;20035;-82
2021/05/19 08:08:56;;;;;;;10.95;3.72;;;16.30;99.90;;;18.60;55.25;100660.06;4944804;29;20039;-81
2021/05/19 08:11:21;;;;;;;11.55;3.28;;;16.40;99.90;;;18.47;55.43;100651.22;4962920;28;20058;-82
2021/05/19 08:13:47;;;;;;;6.50;3.15;;;16.30;99.90;;;18.36;55.59;100658.97;4962265;28;20034;-82
2021/05/19 08:16:16;;;;;;;9.30;3.83;;;16.20;99.90;;;18.03;56.13;100656.66;4964029;28;20027;-82
2021/05/19 08:18:44;;;;;;;10.07;3.15;;;16.10;99.90;;;17.28;56.34;100645.44;4963423;28;20467;-82
2021/05/19 08:21:11;;;;;;;8.90;3.42;;;15.80;99.90;;;16.95;57.09;100651.50;4976226;28;20107;-79
2021/05/19 08:23:37;;;;;;;7.43;3.55;;;15.60;99.90;;;16.27;58.56;100646.84;4969040;28;20475;-83
2021/05/19 08:26:05;;;;;;;8.88;3.70;;;15.20;99.90;;;15.94;60.46;100647.91;4963733;29;20094;-84
2021/05/19 08:28:36;;;;;;;9.32;3.75;;;14.90;99.90;;;15.54;59.28;100651.69;4961938;28;20042;-82
2021/05/19 08:31:04;;;;;;;7.95;3.33;;;14.60;99.90;;;15.84;59.60;100651.47;4963449;28;20027;-83
2021/05/19 08:33:31;;;;;;;11.18;3.78;;;14.50;99.90;;;16.51;56.72;100640.47;4960884;28;20027;-82
2021/05/19 08:35:57;;;;;;;10.25;3.95;;;14.80;99.90;;;16.98;57.18;100635.78;4961676;29;20035;-82
2021/05/19 08:38:23;;;;;;;10.90;3.60;;;15.10;99.90;;;16.90;55.09;100654.69;4960753;29;20035;-82
2021/05/19 08:40:49;;;;;;;8.77;3.17;;;15.20;99.90;;;17.27;54.82;100648.69;4960260;29;20050;-84
2021/05/19 08:43:15;;;;;;;9.07;2.58;;;15.40;99.90;;;17.75;52.66;100646.25;4976435;28;20125;-82
2021/05/19 08:45:41;;;;;;;11.40;3.00;;;15.80;99.90;;;18.98;51.63;100653.34;4958196;29;20046;-85
2021/05/19 08:48:08;;;;;;;5.15;2.38;;;16.70;99.90;;;19.19;51.15;100641.06;4965032;28;20031;-81
2021/05/19 08:50:37;;;;;;;5.18;2.67;;;16.90;99.90;;;19.09;49.74;100651.25;4960469;28;20396;-81
2021/05/19 08:53:09;;;;;;;9.40;2.60;;;17.00;99.90;;;18.69;49.75;100649.09;4966515;28;20027;-83
2021/05/19 08:55:36;;;;;;;8.07;2.55;;;16.90;99.90;;;18.68;51.44;100647.50;4959260;29;20435;-83
2021/05/19 08:58:04;;;;;;;5.97;2.80;;;16.90;99.90;;;19.07;51.14;100650.84;4958678;28;20039;-80
2021/05/19 09:00:33;;;;;;;8.10;3.15;;;17.00;99.90;;;18.85;50.98;100647.38;4959405;29;20033;-81
2021/05/19 09:03:14;;;;;;;6.10;2.42;;;16.80;99.90;;;18.51;51.06;100645.56;4961573;28;20142;-85
2021/05/19 09:05:48;;;;;;;6.15;2.60;;;16.60;99.90;;;18.26;49.87;100642.84;4969767;29;20031;-85
2021/05/19 09:08:46;;;;;;;15.90;3.00;;;16.60;99.90;;;17.89;50.98;100649.81;4951300;28;20028;-83
2021/05/19 09:11:13;;;;;;;6.20;1.92;;;16.40;99.90;;;17.92;50.70;100646.19;4948551;29;20484;-81
2021/05/19 09:13:45;;;;;;;4.75;1.90;;;16.30;99.90;;;18.02;51.12;100649.38;4951821;29;20079;-82
2021/05/19 09:16:25;;;;;;;3.50;1.38;;;16.20;99.90;;;17.69;51.21;100651.47;4962455;29;20060;-83
2021/05/19 09:18:58;;;;;;;4.38;1.50;;;16.10;99.90;;;17.17;53.32;100647.47;4950561;29;20031;-81
2021/05/19 09:21:43;;;;;;;5.90;1.70;;;16.00;99.90;;;17.77;52.70;100646.63;4957999;29;20031;-81
2021/05/19 09:24:38;;;;;;;5.75;2.40;;;16.00;99.90;;;17.84;52.58;100646.63;4966099;28;20099;-83
2021/05/19 09:27:05;;;;;;;8.15;2.65;;;16.10;99.90;;;17.95;51.13;100636.06;4959892;28;20051;-85
2021/05/19 09:29:38;;;;;;;9.60;2.80;;;16.40;99.90;;;17.63;53.09;100641.81;4951248;29;20038;-85
2021/05/19 09:32:14;;;;;;;6.55;2.75;;;16.20;99.90;;;17.06;53.66;100638.19;4944277;29;20031;-84
2021/05/19 09:34:49;;;;;;;7.03;2.55;;;16.00;99.90;;;16.82;54.80;100639.75;4953333;29;20058;-86
2021/05/19 09:37:20;;;;;;;9.73;3.10;;;15.70;99.90;;;16.83;55.49;100638.56;4951431;29;20027;-85
2021/05/19 09:40:06;;;;;;;9.73;2.60;;;15.60;99.90;;;16.55;55.48;100637.72;4954290;28;20094;-82
2021/05/19 09:42:46;;;;;;;7.50;2.55;;;15.50;99.90;;;17.32;55.03;100631.34;4952637;29;20030;-83
2021/05/19 09:45:25;;;;;;;6.03;2.55;;;15.60;99.90;;;17.39;53.75;100634.16;4941191;29;20087;-84
2021/05/19 09:47:55;;;;;;;4.95;2.38;;;15.80;99.90;;;17.50;54.39;100631.34;4940994;29;20038;-86
2021/05/19 09:50:41;;;;;;;6.05;2.63;;;15.90;99.90;;;18.12;52.19;100635.22;4940918;29;20057;-85
2021/05/19 09:53:13;;;;;;;6.90;2.50;;;16.30;99.90;;;18.51;50.39;100625.78;4940268;29;20046;-83
2021/05/19 09:56:01;;;;;;;6.47;2.60;;;16.70;99.90;;;18.83;50.61;100627.19;4939262;29;20107;-85
2021/05/19 09:58:40;;;;;;;11.07;2.30;;;17.20;99.90;;;19.55;49.88;100630.28;4940149;29;20059;-85
2021/05/19 10:01:08;;;;;;;7.00;2.38;;;17.80;99.90;;;20.02;48.22;100629.34;4937873;29;20460;-83
2021/05/19 10:03:36;;;;;;;5.57;2.22;;;18.20;99.90;;;20.32;48.80;100625.78;4947882;29;20649;-87
2021/05/19 10:08:39;;;;;;;8.00;2.42;;;17.90;99.90;;;18.97;49.93;100626.28;4941898;29;20072;-85
2021/05/19 10:11:05;;;;;;;4.03;1.70;;;17.50;99.90;;;18.08;51.80;100628.75;4958939;29;20023;-84
2021/05/19 10:13:35;;;;;;;6.20;1.92;;;17.00;99.90;;;17.72;53.33;100630.88;4962224;28;20030;-85
2021/05/19 10:16:08;;;;;;;4.93;1.73;;;16.60;99.90;;;17.03;54.93;100636.19;4968877;29;20086;-84
2021/05/19 10:18:56;;;;;;;3.38;1.48;;;16.00;99.90;;;16.83;56.22;100637.75;4966471;29;20031;-83
2021/05/19 10:21:34;;;;;;;6.07;2.03;;;15.70;99.90;;;16.61;57.18;100619.19;4966350;28;20062;-81
2021/05/19 10:24:11;;;;;;;4.38;1.17;;;15.60;99.90;;;17.39;54.69;100628.50;4965410;28;20106;-81
2021/05/19 10:27:06;;;;;;;2.53;1.10;;;15.80;99.90;;;17.94;50.86;100628.84;4967507;28;20027;-84
2021/05/19 10:29:51;;;;;;;2.00;0.52;;;16.60;99.90;;;19.09;46.86;100634.28;4929796;29;20357;-85